»·PEaware :: N473AA KSVC-KFLG

N473AA :: KSVC-KFLG

FLIGHT INFORMATION

Flight Status: Arrived
Operator: Privately registered:
United States
More flights under this callsign
Pilot: Craig H. (6968)
Aircraft: CESSNA 172 SKYHAWK
(C172)
More flights by this aircraft type
Origin: KSVC Grant Co
United States
Destination: KFLG Flagstaff Pulliam
United States
More flights between these airports :: More routes between these airports
Route: +SVC SSO TOTEC PXR OATES
File this flight plan on PilotEdge
Remarks:
Altitude:
(Current/Filed)
12,000ft
Speed:
(Current/Filed)
120kts
Departed: 15-Apr-18 02:19 PM
Arrived: 15-Apr-18 05:18 PM
Distance/Time
Traveled:
231nm/2:59
Distance/Time
To Go:
Arrived

Flight Plot

Page will automatically refresh every two minutes.

Flight plan parsing failed; only flown route is shown


Map Options




Map Legend


Flown Route
Filed Route
Departure Airport
Arrival Airport
Navaid (VOR, NDB)
Fix

Horizontal Profiles

Position Reports

Time Latitude Longitude Heading Altitude Ground
Speed
15-Apr-18 14:17 32.656392 -108.315721 276 7390ft 86kts
15-Apr-18 14:18 32.653135 -108.341517 238 7688ft 80kts
15-Apr-18 14:19 32.642928 -108.365120 239 7922ft 85kts
15-Apr-18 14:20 32.632223 -108.390532 239 8180ft 85kts
15-Apr-18 14:21 32.621710 -108.415676 239 8479ft 85kts
15-Apr-18 14:22 32.611302 -108.440660 239 8775ft 84kts
15-Apr-18 14:23 32.600947 -108.465537 239 9072ft 83kts
15-Apr-18 14:24 32.590748 -108.490032 239 9365ft 82kts
15-Apr-18 14:25 32.580807 -108.513877 239 9657ft 79kts
15-Apr-18 14:26 32.571201 -108.536889 239 9946ft 76kts
15-Apr-18 14:27 32.561915 -108.559117 239 10235ft 73kts
15-Apr-18 14:28 32.552534 -108.581560 239 10454ft 78kts
15-Apr-18 14:29 32.542677 -108.605190 239 10658ft 81kts
15-Apr-18 14:30 32.532574 -108.629406 239 10858ft 82kts
15-Apr-18 14:31 32.522524 -108.653471 239 11053ft 83kts
15-Apr-18 14:32 32.512297 -108.677942 239 11253ft 82kts
15-Apr-18 14:33 32.502212 -108.702032 239 11449ft 80kts
15-Apr-18 14:34 32.492358 -108.725543 239 11643ft 79kts
15-Apr-18 14:35 32.482717 -108.748533 239 11838ft 77kts
15-Apr-18 14:36 32.472758 -108.772231 239 11926ft 88kts
15-Apr-18 14:37 32.460786 -108.800869 240 11922ft 103kts
15-Apr-18 14:38 32.446954 -108.834052 238 11808ft 111kts
15-Apr-18 14:39 32.433665 -108.865746 237 11809ft 104kts
15-Apr-18 14:40 32.420886 -108.896139 236 11811ft 102kts
15-Apr-18 14:41 32.407735 -108.927379 237 11812ft 108kts
15-Apr-18 14:42 32.394079 -108.959805 237 11811ft 110kts
15-Apr-18 14:43 32.380274 -108.992558 238 11810ft 111kts
15-Apr-18 14:44 32.366462 -109.025383 236 11809ft 111kts
15-Apr-18 14:45 32.352513 -109.058352 238 11809ft 112kts
15-Apr-18 14:46 32.338544 -109.091451 238 11811ft 112kts
15-Apr-18 14:47 32.324522 -109.124613 238 11809ft 112kts
15-Apr-18 14:48 32.310497 -109.157596 240 11813ft 111kts
15-Apr-18 14:49 32.296831 -109.189884 243 11809ft 108kts
15-Apr-18 14:50 32.283490 -109.221480 243 11809ft 106kts
15-Apr-18 14:51 32.270260 -109.252693 243 11809ft 105kts
15-Apr-18 14:52 32.272932 -109.286647 280 11809ft 107kts
15-Apr-18 14:53 32.280491 -109.320666 281 11809ft 107kts
15-Apr-18 14:54 32.288472 -109.354503 282 11809ft 107kts
15-Apr-18 14:55 32.296592 -109.388328 282 11809ft 107kts
15-Apr-18 14:56 32.304761 -109.422189 282 11809ft 107kts
15-Apr-18 14:57 32.312909 -109.455945 282 11809ft 107kts
15-Apr-18 14:58 32.321070 -109.489771 282 11809ft 107kts
15-Apr-18 14:59 32.329200 -109.523512 282 11809ft 107kts
15-Apr-18 15:00 32.337328 -109.557697 285 11780ft 110kts
15-Apr-18 15:01 32.344485 -109.587211 286 11784ft 113kts
15-Apr-18 15:02 32.353176 -109.623256 286 11784ft 115kts
15-Apr-18 15:03 32.361823 -109.659256 285 11784ft 115kts
15-Apr-18 15:04 32.370590 -109.695839 285 11783ft 115kts
15-Apr-18 15:05 32.379361 -109.732496 285 11783ft 116kts
15-Apr-18 15:06 32.388157 -109.769313 285 11783ft 116kts
15-Apr-18 15:07 32.396904 -109.805976 285 11783ft 116kts
15-Apr-18 15:08 32.405669 -109.842768 285 11783ft 116kts
15-Apr-18 15:09 32.414416 -109.879532 285 11783ft 116kts
15-Apr-18 15:10 32.423152 -109.916306 285 11783ft 116kts
15-Apr-18 15:11 32.431881 -109.953099 285 11783ft 116kts
15-Apr-18 15:12 32.440608 -109.989940 285 11783ft 116kts
15-Apr-18 15:13 32.449327 -110.026794 285 11783ft 116kts
15-Apr-18 15:14 32.458055 -110.063744 285 11783ft 116kts
15-Apr-18 15:15 32.466744 -110.100580 285 11783ft 116kts
15-Apr-18 15:16 32.475437 -110.137483 285 11783ft 116kts
15-Apr-18 15:17 32.484097 -110.174300 285 11783ft 116kts
15-Apr-18 15:18 32.492787 -110.211303 285 11783ft 116kts
15-Apr-18 15:19 32.501458 -110.248269 285 11783ft 116kts
15-Apr-18 15:20 32.510107 -110.285203 285 11783ft 116kts
15-Apr-18 15:21 32.518738 -110.322106 285 11783ft 116kts
15-Apr-18 15:22 32.527367 -110.359056 285 11783ft 116kts
15-Apr-18 15:23 32.535974 -110.395966 285 11783ft 116kts
15-Apr-18 15:24 32.544455 -110.431892 282 11752ft 108kts
15-Apr-18 15:25 32.552111 -110.465023 280 11755ft 106kts
15-Apr-18 15:26 32.559870 -110.498686 280 11755ft 105kts
15-Apr-18 15:27 32.567568 -110.531984 280 11755ft 104kts
15-Apr-18 15:28 32.575230 -110.565119 280 11755ft 104kts
15-Apr-18 15:29 32.582862 -110.598154 280 11755ft 103kts
15-Apr-18 15:30 32.590464 -110.631091 280 11755ft 103kts
15-Apr-18 15:31 32.598055 -110.664023 280 11758ft 104kts
15-Apr-18 15:32 32.605073 -110.694552 279 11916ft 97kts
15-Apr-18 15:33 32.612489 -110.727069 282 11915ft 106kts
15-Apr-18 15:34 32.620494 -110.761746 282 11914ft 111kts
15-Apr-18 15:35 32.628656 -110.797229 282 11911ft 110kts
15-Apr-18 15:36 32.636549 -110.831330 280 11913ft 103kts
15-Apr-18 15:37 32.643885 -110.863569 280 11912ft 99kts
15-Apr-18 15:38 32.651020 -110.894896 280 11913ft 97kts
15-Apr-18 15:39 32.658027 -110.925674 280 11913ft 96kts
15-Apr-18 15:40 32.665034 -110.956464 279 11913ft 96kts
15-Apr-18 15:41 32.671410 -110.984508 279 11913ft 96kts
15-Apr-18 15:42 32.678218 -111.014410 279 12036ft 84kts
15-Apr-18 15:43 32.684261 -111.041222 279 12104ft 88kts
15-Apr-18 15:44 32.690817 -111.070198 279 12103ft 92kts
15-Apr-18 15:45 32.697587 -111.100090 279 12102ft 94kts
15-Apr-18 15:46 32.704460 -111.130408 279 12102ft 95kts
15-Apr-18 15:47 32.711275 -111.160609 279 12101ft 94kts
15-Apr-18 15:48 32.718078 -111.190787 279 12101ft 94kts
15-Apr-18 15:49 32.724860 -111.220900 279 12101ft 94kts
15-Apr-18 15:50 32.731623 -111.250962 279 12101ft 94kts
15-Apr-18 15:51 32.738375 -111.281017 279 12101ft 94kts
15-Apr-18 15:52 32.745123 -111.311084 279 12101ft 94kts
15-Apr-18 15:53 32.751837 -111.341043 279 12101ft 94kts
15-Apr-18 15:54 32.758560 -111.371073 279 12101ft 93kts
15-Apr-18 15:55 32.765254 -111.401010 279 12100ft 93kts
15-Apr-18 15:56 32.771948 -111.430990 279 12100ft 93kts
15-Apr-18 15:57 32.778788 -111.461733 279 12102ft 99kts
15-Apr-18 15:58 32.785988 -111.494035 279 12101ft 102kts
15-Apr-18 15:59 32.793311 -111.526914 279 12100ft 103kts
15-Apr-18 16:00 32.800697 -111.560116 279 12100ft 104kts
15-Apr-18 16:01 32.808082 -111.593367 279 12100ft 104kts
15-Apr-18 16:02 32.815741 -111.627936 279 11919ft 112kts
15-Apr-18 16:03 32.836413 -111.654137 321 11913ft 118kts
15-Apr-18 16:04 32.865604 -111.672000 325 11911ft 115kts
15-Apr-18 16:05 32.892711 -111.687173 324 12002ft 101kts
15-Apr-18 16:06 32.918156 -111.701168 324 12006ft 101kts
15-Apr-18 16:07 32.939096 -111.712577 324 12006ft 101kts
15-Apr-18 16:08 32.964698 -111.726477 324 12006ft 101kts
15-Apr-18 16:09 32.990277 -111.740361 324 12006ft 101kts
15-Apr-18 16:10 33.015834 -111.754231 324 12006ft 101kts
15-Apr-18 16:11 33.041520 -111.768176 324 12006ft 101kts
15-Apr-18 16:12 33.067247 -111.782151 324 12006ft 101kts
15-Apr-18 16:13 33.092997 -111.796148 324 12006ft 101kts
15-Apr-18 16:14 33.118821 -111.810200 325 11977ft 103kts
15-Apr-18 16:15 33.144732 -111.824312 324 11980ft 105kts
15-Apr-18 16:16 33.172454 -111.839437 325 11978ft 113kts
15-Apr-18 16:17 33.201601 -111.855245 324 11977ft 117kts
15-Apr-18 16:18 33.231501 -111.871577 324 11977ft 119kts
15-Apr-18 16:19 33.262021 -111.888230 324 11977ft 121kts
15-Apr-18 16:20 33.292782 -111.905016 324 11977ft 122kts
15-Apr-18 16:21 33.323514 -111.921798 324 11977ft 122kts
15-Apr-18 16:22 33.353787 -111.938312 324 11975ft 116kts
15-Apr-18 16:23 33.382798 -111.954181 323 11976ft 113kts
15-Apr-18 16:24 33.411045 -111.969649 323 11998ft 110kts
15-Apr-18 16:25 33.441283 -111.977512 355 12004ft 121kts
15-Apr-18 16:26 33.475155 -111.972803 358 12004ft 123kts
15-Apr-18 16:27 33.509001 -111.967195 358 12004ft 123kts
15-Apr-18 16:28 33.543100 -111.961278 359 12004ft 124kts
15-Apr-18 16:29 33.577123 -111.955296 359 12004ft 124kts
15-Apr-18 16:30 33.611260 -111.949270 359 12004ft 124kts
15-Apr-18 16:31 33.645418 -111.943231 359 12005ft 124kts
15-Apr-18 16:32 33.679565 -111.937187 359 12005ft 124kts
15-Apr-18 16:33 33.713723 -111.931136 359 12005ft 124kts
15-Apr-18 16:34 33.747937 -111.925070 359 12005ft 124kts
15-Apr-18 16:35 33.782182 -111.918994 359 12005ft 124kts
15-Apr-18 16:36 33.816518 -111.912905 359 11981ft 126kts
15-Apr-18 16:37 33.851205 -111.906731 359 11978ft 125kts
15-Apr-18 16:38 33.885689 -111.900596 359 11978ft 125kts
15-Apr-18 16:39 33.920083 -111.894474 359 11979ft 125kts
15-Apr-18 16:40 33.954016 -111.888596 3 11978ft 120kts
15-Apr-18 16:41 33.987118 -111.882499 358 11980ft 121kts
15-Apr-18 16:42 34.019796 -111.876638 357 12128ft 110kts
15-Apr-18 16:43 34.050375 -111.871445 6 12169ft 111kts
15-Apr-18 16:44 34.080237 -111.865712 355 12157ft 108kts
15-Apr-18 16:45 34.111073 -111.860425 358 12168ft 117kts
15-Apr-18 16:46 34.143828 -111.854583 358 12166ft 121kts
15-Apr-18 16:47 34.177508 -111.848545 358 12166ft 123kts
15-Apr-18 16:48 34.211371 -111.842468 358 12166ft 123kts
15-Apr-18 16:49 34.245407 -111.836359 358 12166ft 124kts
15-Apr-18 16:50 34.278604 -111.830555 6 12166ft 116kts
15-Apr-18 16:51 34.309727 -111.824869 7 12165ft 110kts
15-Apr-18 16:52 34.339738 -111.819425 7 12166ft 108kts
15-Apr-18 16:53 34.369271 -111.814105 7 12166ft 107kts
15-Apr-18 16:54 34.398625 -111.808823 7 12169ft 106kts
15-Apr-18 16:55 34.427399 -111.803415 355 12131ft 107kts
15-Apr-18 16:56 34.458815 -111.798038 358 12144ft 121kts
15-Apr-18 16:57 34.493578 -111.791784 359 12141ft 129kts
15-Apr-18 16:58 34.529136 -111.785326 359 12140ft 129kts
15-Apr-18 16:59 34.564538 -111.778914 359 12140ft 128kts
15-Apr-18 17:00 34.599614 -111.772565 359 12140ft 128kts
15-Apr-18 17:01 34.634737 -111.766204 359 12140ft 127kts
15-Apr-18 17:02 34.671367 -111.756945 7 11863ft 140kts
15-Apr-18 17:03 34.708372 -111.746542 10 11467ft 133kts
15-Apr-18 17:04 34.744854 -111.739372 10 11071ft 132kts
15-Apr-18 17:05 34.780668 -111.732773 10 10684ft 132kts
15-Apr-18 17:06 34.816933 -111.725956 4 10290ft 136kts
15-Apr-18 17:07 34.854597 -111.719198 4 9908ft 138kts
15-Apr-18 17:08 34.892925 -111.713029 3 9528ft 139kts
15-Apr-18 17:09 34.931209 -111.707371 2 9149ft 138kts
15-Apr-18 17:10 34.962909 -111.702697 2 8833ft 138kts
15-Apr-18 17:11 35.000794 -111.697126 2 8453ft 137kts
15-Apr-18 17:12 35.039767 -111.691387 3 8085ft 143kts
15-Apr-18 17:13 35.078818 -111.685123 6 7798ft 135kts
15-Apr-18 17:14 35.113277 -111.672423 17 7691ft 123kts
15-Apr-18 17:15 35.137930 -111.651409 24 7541ft 98kts
15-Apr-18 17:16 35.143353 -111.665978 216 7017ft 52kts
15-Apr-18 17:17 35.139294 -111.671567 309 7014ft 0kts
15-Apr-18 17:18 35.139321 -111.671610 304 7014ft 3kts
15-Apr-18 17:19 35.136327 -111.675272 221 7014ft 20kts
15-Apr-18 17:20 35.134957 -111.677868 44 7014ft 0kts
15-Apr-18 17:21 35.134957 -111.677868 44 7014ft 0kts

Navigation Log

Ident Type
Flight plan parsing failed, navigation log unavailable